sensor_id;sensor_type;location;lat;lon;timestamp;P1;durP1;ratioP1;P2;durP2;ratioP2
69795;SDS011;57073;45.650;9.612;2023-03-30T00:04:12;5.80;;;2.90;;
69795;SDS011;57073;45.650;9.612;2023-03-30T00:09:12;8.57;;;3.20;;
69795;SDS011;57073;45.650;9.612;2023-03-30T00:14:13;6.23;;;2.80;;
69795;SDS011;57073;45.650;9.612;2023-03-30T00:19:16;11.07;;;3.33;;
69795;SDS011;57073;45.650;9.612;2023-03-30T00:24:17;10.37;;;3.50;;
69795;SDS011;57073;45.650;9.612;2023-03-30T00:29:17;9.10;;;3.60;;
69795;SDS011;57073;45.650;9.612;2023-03-30T00:34:18;7.10;;;3.30;;
69795;SDS011;57073;45.650;9.612;2023-03-30T00:39:18;7.68;;;3.80;;
69795;SDS011;57073;45.650;9.612;2023-03-30T00:49:59;9.65;;;3.85;;
69795;SDS011;57073;45.650;9.612;2023-03-30T00:54:59;10.00;;;3.60;;
69795;SDS011;57073;45.650;9.612;2023-03-30T01:00:00;9.70;;;3.50;;
69795;SDS011;57073;45.650;9.612;2023-03-30T01:05:00;7.43;;;3.37;;
69795;SDS011;57073;45.650;9.612;2023-03-30T01:10:02;9.63;;;3.55;;
69795;SDS011;57073;45.650;9.612;2023-03-30T01:15:04;9.52;;;3.75;;
69795;SDS011;57073;45.650;9.612;2023-03-30T01:25:35;7.15;;;3.00;;
69795;SDS011;57073;45.650;9.612;2023-03-30T01:31:10;5.00;;;2.90;;
69795;SDS011;57073;45.650;9.612;2023-03-30T01:47:34;6.97;;;3.25;;
69795;SDS011;57073;45.650;9.612;2023-03-30T01:52:46;5.73;;;3.13;;
69795;SDS011;57073;45.650;9.612;2023-03-30T01:58:09;7.93;;;3.47;;
69795;SDS011;57073;45.650;9.612;2023-03-30T02:03:21;7.30;;;3.35;;
69795;SDS011;57073;45.650;9.612;2023-03-30T02:08:28;7.83;;;3.20;;
69795;SDS011;57073;45.650;9.612;2023-03-30T02:13:31;8.23;;;2.70;;
69795;SDS011;57073;45.650;9.612;2023-03-30T02:18:33;6.97;;;2.80;;
69795;SDS011;57073;45.650;9.612;2023-03-30T02:23:37;9.93;;;3.30;;
69795;SDS011;57073;45.650;9.612;2023-03-30T02:28:41;8.15;;;2.45;;
69795;SDS011;57073;45.650;9.612;2023-03-30T02:33:56;5.70;;;2.80;;
69795;SDS011;57073;45.650;9.612;2023-03-30T02:39:11;8.03;;;3.00;;
69795;SDS011;57073;45.650;9.612;2023-03-30T02:44:21;6.35;;;2.65;;
69795;SDS011;57073;45.650;9.612;2023-03-30T02:50:09;10.30;;;2.83;;
69795;SDS011;57073;45.650;9.612;2023-03-30T02:55:21;5.60;;;2.47;;
69795;SDS011;57073;45.650;9.612;2023-03-30T03:00:42;5.45;;;2.80;;
69795;SDS011;57073;45.650;9.612;2023-03-30T03:05:50;5.43;;;2.83;;
69795;SDS011;57073;45.650;9.612;2023-03-30T03:10:54;7.43;;;2.57;;
69795;SDS011;57073;45.650;9.612;2023-03-30T03:15:55;6.57;;;2.83;;
69795;SDS011;57073;45.650;9.612;2023-03-30T03:20:56;4.35;;;2.45;;
69795;SDS011;57073;45.650;9.612;2023-03-30T03:25:57;8.00;;;2.53;;
69795;SDS011;57073;45.650;9.612;2023-03-30T03:30:59;5.68;;;2.70;;
69795;SDS011;57073;45.650;9.612;2023-03-30T03:36:01;6.27;;;2.67;;
69795;SDS011;57073;45.650;9.612;2023-03-30T03:41:01;5.13;;;2.73;;
69795;SDS011;57073;45.650;9.612;2023-03-30T03:46:02;6.83;;;2.87;;
69795;SDS011;57073;45.650;9.612;2023-03-30T03:51:03;6.67;;;2.80;;
69795;SDS011;57073;45.650;9.612;2023-03-30T03:56:04;7.57;;;2.72;;
69795;SDS011;57073;45.650;9.612;2023-03-30T04:01:04;6.90;;;2.93;;
69795;SDS011;57073;45.650;9.612;2023-03-30T04:06:05;7.40;;;2.75;;
69795;SDS011;57073;45.650;9.612;2023-03-30T04:11:07;5.37;;;2.37;;
69795;SDS011;57073;45.650;9.612;2023-03-30T04:16:10;6.50;;;2.80;;
69795;SDS011;57073;45.650;9.612;2023-03-30T04:21:11;6.50;;;3.00;;
69795;SDS011;57073;45.650;9.612;2023-03-30T04:26:16;10.40;;;2.60;;
69795;SDS011;57073;45.650;9.612;2023-03-30T04:31:17;7.03;;;2.70;;
69795;SDS011;57073;45.650;9.612;2023-03-30T04:36:17;8.30;;;2.80;;
69795;SDS011;57073;45.650;9.612;2023-03-30T04:41:19;9.00;;;2.77;;
69795;SDS011;57073;45.650;9.612;2023-03-30T04:46:25;5.80;;;2.60;;
69795;SDS011;57073;45.650;9.612;2023-03-30T04:51:25;5.37;;;2.37;;
69795;SDS011;57073;45.650;9.612;2023-03-30T04:56:25;5.60;;;2.50;;
69795;SDS011;57073;45.650;9.612;2023-03-30T05:01:26;5.93;;;2.35;;
69795;SDS011;57073;45.650;9.612;2023-03-30T05:06:27;10.23;;;2.43;;
69795;SDS011;57073;45.650;9.612;2023-03-30T05:11:28;7.32;;;3.35;;
69795;SDS011;57073;45.650;9.612;2023-03-30T05:16:29;5.60;;;2.57;;
69795;SDS011;57073;45.650;9.612;2023-03-30T05:21:30;7.37;;;3.80;;
69795;SDS011;57073;45.650;9.612;2023-03-30T05:26:30;6.25;;;2.75;;
69795;SDS011;57073;45.650;9.612;2023-03-30T05:31:30;6.43;;;2.50;;
69795;SDS011;57073;45.650;9.612;2023-03-30T05:36:31;7.27;;;2.63;;
69795;SDS011;57073;45.650;9.612;2023-03-30T05:41:31;6.60;;;2.47;;
69795;SDS011;57073;45.650;9.612;2023-03-30T05:46:32;8.40;;;3.40;;
69795;SDS011;57073;45.650;9.612;2023-03-30T05:51:32;12.07;;;4.27;;
69795;SDS011;57073;45.650;9.612;2023-03-30T05:56:32;9.40;;;3.60;;
69795;SDS011;57073;45.650;9.612;2023-03-30T06:01:33;12.63;;;5.00;;
69795;SDS011;57073;45.650;9.612;2023-03-30T06:06:33;12.15;;;5.03;;
69795;SDS011;57073;45.650;9.612;2023-03-30T06:11:34;14.00;;;4.90;;
69795;SDS011;57073;45.650;9.612;2023-03-30T06:16:35;10.50;;;3.30;;
69795;SDS011;57073;45.650;9.612;2023-03-30T06:21:35;9.75;;;3.00;;
69795;SDS011;57073;45.650;9.612;2023-03-30T06:26:36;7.97;;;3.10;;
69795;SDS011;57073;45.650;9.612;2023-03-30T06:31:36;5.13;;;3.20;;
69795;SDS011;57073;45.650;9.612;2023-03-30T06:36:37;7.10;;;3.00;;
69795;SDS011;57073;45.650;9.612;2023-03-30T06:41:37;6.70;;;3.03;;
69795;SDS011;57073;45.650;9.612;2023-03-30T06:46:37;7.03;;;2.90;;
69795;SDS011;57073;45.650;9.612;2023-03-30T06:51:38;11.13;;;2.90;;
69795;SDS011;57073;45.650;9.612;2023-03-30T06:56:38;7.97;;;2.93;;
69795;SDS011;57073;45.650;9.612;2023-03-30T07:01:38;7.17;;;2.97;;
69795;SDS011;57073;45.650;9.612;2023-03-30T07:06:40;6.47;;;3.13;;
69795;SDS011;57073;45.650;9.612;2023-03-30T07:11:40;8.70;;;3.50;;
69795;SDS011;57073;45.650;9.612;2023-03-30T07:16:40;8.43;;;3.60;;
69795;SDS011;57073;45.650;9.612;2023-03-30T07:21:41;6.07;;;2.87;;
69795;SDS011;57073;45.650;9.612;2023-03-30T07:26:41;6.93;;;3.00;;
69795;SDS011;57073;45.650;9.612;2023-03-30T07:31:42;7.47;;;2.70;;
69795;SDS011;57073;45.650;9.612;2023-03-30T07:36:42;6.50;;;3.20;;
69795;SDS011;57073;45.650;9.612;2023-03-30T07:41:42;8.47;;;3.10;;
69795;SDS011;57073;45.650;9.612;2023-03-30T07:46:44;8.17;;;2.83;;
69795;SDS011;57073;45.650;9.612;2023-03-30T07:51:45;7.03;;;3.20;;
69795;SDS011;57073;45.650;9.612;2023-03-30T07:56:46;6.77;;;2.50;;
69795;SDS011;57073;45.650;9.612;2023-03-30T08:01:51;7.88;;;2.58;;
69795;SDS011;57073;45.650;9.612;2023-03-30T08:06:53;11.77;;;5.65;;
69795;SDS011;57073;45.650;9.612;2023-03-30T08:11:53;18.00;;;7.03;;
69795;SDS011;57073;45.650;9.612;2023-03-30T08:16:54;17.80;;;8.33;;
69795;SDS011;57073;45.650;9.612;2023-03-30T08:21:55;18.07;;;7.53;;
69795;SDS011;57073;45.650;9.612;2023-03-30T08:26:55;12.87;;;7.70;;
69795;SDS011;57073;45.650;9.612;2023-03-30T08:31:56;16.83;;;8.00;;
69795;SDS011;57073;45.650;9.612;2023-03-30T08:36:56;17.08;;;8.52;;
69795;SDS011;57073;45.650;9.612;2023-03-30T08:47:13;15.90;;;7.47;;
69795;SDS011;57073;45.650;9.612;2023-03-30T08:52:21;16.00;;;9.35;;
69795;SDS011;57073;45.650;9.612;2023-03-30T08:57:31;17.60;;;9.38;;
69795;SDS011;57073;45.650;9.612;2023-03-30T09:02:41;15.33;;;8.77;;
69795;SDS011;57073;45.650;9.612;2023-03-30T09:07:56;15.95;;;8.02;;
69795;SDS011;57073;45.650;9.612;2023-03-30T09:13:09;14.98;;;7.57;;
69795;SDS011;57073;45.650;9.612;2023-03-30T09:23:29;19.17;;;8.20;;
69795;SDS011;57073;45.650;9.612;2023-03-30T09:39:07;17.20;;;9.93;;
69795;SDS011;57073;45.650;9.612;2023-03-30T09:50:04;18.27;;;11.23;;
69795;SDS011;57073;45.650;9.612;2023-03-30T09:55:23;18.80;;;10.50;;
69795;SDS011;57073;45.650;9.612;2023-03-30T10:00:30;21.48;;;12.00;;
69795;SDS011;57073;45.650;9.612;2023-03-30T10:05:32;20.83;;;12.80;;
69795;SDS011;57073;45.650;9.612;2023-03-30T10:10:36;23.60;;;12.15;;
69795;SDS011;57073;45.650;9.612;2023-03-30T10:15:40;22.25;;;13.27;;
69795;SDS011;57073;45.650;9.612;2023-03-30T10:20:46;26.80;;;14.20;;
69795;SDS011;57073;45.650;9.612;2023-03-30T10:25:50;21.60;;;14.20;;
69795;SDS011;57073;45.650;9.612;2023-03-30T10:31:02;25.00;;;15.02;;
69795;SDS011;57073;45.650;9.612;2023-03-30T10:36:04;25.60;;;15.10;;
69795;SDS011;57073;45.650;9.612;2023-03-30T10:41:06;26.42;;;15.57;;
69795;SDS011;57073;45.650;9.612;2023-03-30T10:46:16;26.40;;;15.05;;
69795;SDS011;57073;45.650;9.612;2023-03-30T10:51:24;27.70;;;15.90;;
69795;SDS011;57073;45.650;9.612;2023-03-30T11:07:26;24.53;;;15.07;;
69795;SDS011;57073;45.650;9.612;2023-03-30T11:12:29;25.80;;;15.70;;
69795;SDS011;57073;45.650;9.612;2023-03-30T11:17:39;29.90;;;15.27;;
69795;SDS011;57073;45.650;9.612;2023-03-30T11:22:51;26.53;;;14.87;;
69795;SDS011;57073;45.650;9.612;2023-03-30T11:28:35;30.13;;;15.30;;
69795;SDS011;57073;45.650;9.612;2023-03-30T11:34:13;27.38;;;15.30;;
69795;SDS011;57073;45.650;9.612;2023-03-30T11:39:22;26.33;;;16.40;;
69795;SDS011;57073;45.650;9.612;2023-03-30T11:44:28;26.30;;;15.77;;
69795;SDS011;57073;45.650;9.612;2023-03-30T12:05:50;24.63;;;14.53;;
69795;SDS011;57073;45.650;9.612;2023-03-30T12:11:04;26.10;;;14.07;;
69795;SDS011;57073;45.650;9.612;2023-03-30T12:16:23;25.73;;;15.10;;
69795;SDS011;57073;45.650;9.612;2023-03-30T12:21:37;21.13;;;13.67;;
69795;SDS011;57073;45.650;9.612;2023-03-30T12:26:51;25.40;;;14.13;;
69795;SDS011;57073;45.650;9.612;2023-03-30T12:42:39;16.50;;;10.32;;
69795;SDS011;57073;45.650;9.612;2023-03-30T12:58:31;9.20;;;6.00;;
69795;SDS011;57073;45.650;9.612;2023-03-30T13:04:00;70.55;;;9.05;;
69795;SDS011;57073;45.650;9.612;2023-03-30T13:19:45;8.30;;;3.97;;
69795;SDS011;57073;45.650;9.612;2023-03-30T13:30:27;9.90;;;4.23;;
69795;SDS011;57073;45.650;9.612;2023-03-30T13:40:29;13.40;;;4.93;;
69795;SDS011;57073;45.650;9.612;2023-03-30T13:45:59;8.90;;;4.80;;
69795;SDS011;57073;45.650;9.612;2023-03-30T13:51:03;10.60;;;4.37;;
69795;SDS011;57073;45.650;9.612;2023-03-30T13:56:07;13.60;;;5.00;;
69795;SDS011;57073;45.650;9.612;2023-03-30T14:01:12;9.87;;;4.37;;
69795;SDS011;57073;45.650;9.612;2023-03-30T14:06:17;9.73;;;4.10;;
69795;SDS011;57073;45.650;9.612;2023-03-30T14:11:22;11.73;;;4.70;;
69795;SDS011;57073;45.650;9.612;2023-03-30T14:16:35;9.50;;;4.77;;
69795;SDS011;57073;45.650;9.612;2023-03-30T14:21:38;12.13;;;5.10;;
69795;SDS011;57073;45.650;9.612;2023-03-30T14:26:47;8.98;;;5.28;;
69795;SDS011;57073;45.650;9.612;2023-03-30T14:31:49;10.87;;;5.20;;
69795;SDS011;57073;45.650;9.612;2023-03-30T14:36:51;11.43;;;5.97;;
69795;SDS011;57073;45.650;9.612;2023-03-30T14:41:52;13.02;;;5.80;;
69795;SDS011;57073;45.650;9.612;2023-03-30T14:46:55;8.97;;;5.57;;
69795;SDS011;57073;45.650;9.612;2023-03-30T14:52:03;13.77;;;6.57;;
69795;SDS011;57073;45.650;9.612;2023-03-30T14:57:09;12.73;;;6.43;;
69795;SDS011;57073;45.650;9.612;2023-03-30T15:02:16;10.77;;;7.00;;
69795;SDS011;57073;45.650;9.612;2023-03-30T15:07:19;11.82;;;6.85;;
69795;SDS011;57073;45.650;9.612;2023-03-30T15:12:31;12.97;;;6.77;;
69795;SDS011;57073;45.650;9.612;2023-03-30T15:17:34;13.10;;;7.80;;
69795;SDS011;57073;45.650;9.612;2023-03-30T15:22:47;12.97;;;6.77;;
69795;SDS011;57073;45.650;9.612;2023-03-30T15:38:34;12.30;;;6.30;;
69795;SDS011;57073;45.650;9.612;2023-03-30T15:43:57;13.05;;;6.15;;
69795;SDS011;57073;45.650;9.612;2023-03-30T15:49:08;10.65;;;6.45;;
69795;SDS011;57073;45.650;9.612;2023-03-30T15:54:15;10.00;;;6.20;;
69795;SDS011;57073;45.650;9.612;2023-03-30T15:59:19;11.40;;;5.88;;
69795;SDS011;57073;45.650;9.612;2023-03-30T16:04:23;15.38;;;6.60;;
69795;SDS011;57073;45.650;9.612;2023-03-30T16:09:24;12.67;;;6.00;;
69795;SDS011;57073;45.650;9.612;2023-03-30T16:14:24;13.55;;;6.32;;
69795;SDS011;57073;45.650;9.612;2023-03-30T16:19:25;10.13;;;5.93;;
69795;SDS011;57073;45.650;9.612;2023-03-30T16:24:25;9.50;;;5.60;;
69795;SDS011;57073;45.650;9.612;2023-03-30T16:29:26;11.73;;;6.00;;
69795;SDS011;57073;45.650;9.612;2023-03-30T16:34:26;9.70;;;4.67;;
69795;SDS011;57073;45.650;9.612;2023-03-30T16:39:28;10.43;;;4.53;;
69795;SDS011;57073;45.650;9.612;2023-03-30T16:44:30;6.30;;;4.63;;
69795;SDS011;57073;45.650;9.612;2023-03-30T16:49:30;13.20;;;4.80;;
69795;SDS011;57073;45.650;9.612;2023-03-30T16:54:31;15.95;;;6.35;;
69795;SDS011;57073;45.650;9.612;2023-03-30T16:59:31;9.53;;;4.70;;
69795;SDS011;57073;45.650;9.612;2023-03-30T17:04:32;9.67;;;4.53;;
69795;SDS011;57073;45.650;9.612;2023-03-30T17:09:32;8.63;;;4.60;;
69795;SDS011;57073;45.650;9.612;2023-03-30T17:14:32;11.13;;;4.40;;
69795;SDS011;57073;45.650;9.612;2023-03-30T17:19:33;10.00;;;4.30;;
69795;SDS011;57073;45.650;9.612;2023-03-30T17:24:33;7.67;;;4.07;;
69795;SDS011;57073;45.650;9.612;2023-03-30T17:29:33;9.37;;;4.10;;
69795;SDS011;57073;45.650;9.612;2023-03-30T17:34:34;9.53;;;4.17;;
69795;SDS011;57073;45.650;9.612;2023-03-30T17:39:34;10.30;;;4.43;;
69795;SDS011;57073;45.650;9.612;2023-03-30T17:44:35;11.73;;;4.27;;
69795;SDS011;57073;45.650;9.612;2023-03-30T17:49:36;9.43;;;5.00;;
69795;SDS011;57073;45.650;9.612;2023-03-30T17:54:38;9.87;;;4.50;;
69795;SDS011;57073;45.650;9.612;2023-03-30T17:59:38;8.80;;;4.20;;
69795;SDS011;57073;45.650;9.612;2023-03-30T18:04:38;13.87;;;4.57;;
69795;SDS011;57073;45.650;9.612;2023-03-30T18:09:39;11.70;;;4.53;;
69795;SDS011;57073;45.650;9.612;2023-03-30T18:14:40;14.10;;;4.63;;
69795;SDS011;57073;45.650;9.612;2023-03-30T18:19:40;10.07;;;4.97;;
69795;SDS011;57073;45.650;9.612;2023-03-30T18:24:40;12.33;;;4.37;;
69795;SDS011;57073;45.650;9.612;2023-03-30T18:29:42;10.95;;;4.38;;
69795;SDS011;57073;45.650;9.612;2023-03-30T18:34:43;16.67;;;4.90;;
69795;SDS011;57073;45.650;9.612;2023-03-30T18:39:43;13.70;;;4.90;;
69795;SDS011;57073;45.650;9.612;2023-03-30T18:44:45;10.17;;;5.17;;
69795;SDS011;57073;45.650;9.612;2023-03-30T18:49:45;16.00;;;5.90;;
69795;SDS011;57073;45.650;9.612;2023-03-30T18:54:46;15.33;;;5.63;;
69795;SDS011;57073;45.650;9.612;2023-03-30T18:59:46;10.47;;;4.93;;
69795;SDS011;57073;45.650;9.612;2023-03-30T19:04:46;14.73;;;5.00;;
69795;SDS011;57073;45.650;9.612;2023-03-30T19:09:47;17.10;;;5.60;;
69795;SDS011;57073;45.650;9.612;2023-03-30T19:14:47;12.20;;;5.67;;
69795;SDS011;57073;45.650;9.612;2023-03-30T19:19:47;15.27;;;6.17;;
69795;SDS011;57073;45.650;9.612;2023-03-30T19:24:48;10.20;;;6.37;;
69795;SDS011;57073;45.650;9.612;2023-03-30T19:29:48;16.83;;;7.53;;
69795;SDS011;57073;45.650;9.612;2023-03-30T19:34:49;11.63;;;6.10;;
69795;SDS011;57073;45.650;9.612;2023-03-30T19:39:49;13.32;;;6.63;;
69795;SDS011;57073;45.650;9.612;2023-03-30T19:44:50;12.73;;;6.93;;
69795;SDS011;57073;45.650;9.612;2023-03-30T19:49:50;11.80;;;6.50;;
69795;SDS011;57073;45.650;9.612;2023-03-30T19:54:51;10.80;;;6.25;;
69795;SDS011;57073;45.650;9.612;2023-03-30T19:59:51;12.20;;;5.40;;
69795;SDS011;57073;45.650;9.612;2023-03-30T20:04:52;11.75;;;5.97;;
69795;SDS011;57073;45.650;9.612;2023-03-30T20:09:53;13.30;;;6.77;;
69795;SDS011;57073;45.650;9.612;2023-03-30T20:14:53;12.70;;;7.17;;
69795;SDS011;57073;45.650;9.612;2023-03-30T20:19:55;19.10;;;9.35;;
69795;SDS011;57073;45.650;9.612;2023-03-30T20:24:57;18.50;;;9.27;;
69795;SDS011;57073;45.650;9.612;2023-03-30T20:29:58;13.43;;;5.80;;
69795;SDS011;57073;45.650;9.612;2023-03-30T20:34:59;7.15;;;3.13;;
69795;SDS011;57073;45.650;9.612;2023-03-30T20:39:59;11.43;;;3.37;;
69795;SDS011;57073;45.650;9.612;2023-03-30T20:45:09;8.35;;;2.92;;
69795;SDS011;57073;45.650;9.612;2023-03-30T20:50:10;10.73;;;2.70;;
69795;SDS011;57073;45.650;9.612;2023-03-30T20:55:11;8.30;;;2.67;;
69795;SDS011;57073;45.650;9.612;2023-03-30T21:00:12;7.30;;;2.20;;
69795;SDS011;57073;45.650;9.612;2023-03-30T21:05:14;5.70;;;2.10;;
69795;SDS011;57073;45.650;9.612;2023-03-30T21:10:15;6.10;;;2.73;;
69795;SDS011;57073;45.650;9.612;2023-03-30T21:15:16;9.05;;;2.92;;
69795;SDS011;57073;45.650;9.612;2023-03-30T21:20:17;10.50;;;3.40;;
69795;SDS011;57073;45.650;9.612;2023-03-30T21:25:17;9.27;;;3.20;;
69795;SDS011;57073;45.650;9.612;2023-03-30T21:30:17;7.00;;;3.20;;
69795;SDS011;57073;45.650;9.612;2023-03-30T21:35:18;6.73;;;4.00;;
69795;SDS011;57073;45.650;9.612;2023-03-30T21:40:18;11.67;;;5.20;;
69795;SDS011;57073;45.650;9.612;2023-03-30T21:45:19;12.57;;;6.35;;
69795;SDS011;57073;45.650;9.612;2023-03-30T21:50:19;13.77;;;6.60;;
69795;SDS011;57073;45.650;9.612;2023-03-30T21:55:20;13.50;;;7.30;;
69795;SDS011;57073;45.650;9.612;2023-03-30T22:00:20;16.13;;;7.53;;
69795;SDS011;57073;45.650;9.612;2023-03-30T22:05:20;14.27;;;7.27;;
69795;SDS011;57073;45.650;9.612;2023-03-30T22:10:21;17.57;;;7.80;;
69795;SDS011;57073;45.650;9.612;2023-03-30T22:15:22;15.50;;;7.40;;
69795;SDS011;57073;45.650;9.612;2023-03-30T22:20:22;13.53;;;7.00;;
69795;SDS011;57073;45.650;9.612;2023-03-30T22:25:23;16.80;;;7.13;;
69795;SDS011;57073;45.650;9.612;2023-03-30T22:30:23;17.53;;;7.53;;
69795;SDS011;57073;45.650;9.612;2023-03-30T22:35:24;13.50;;;6.47;;
69795;SDS011;57073;45.650;9.612;2023-03-30T22:40:24;14.40;;;5.90;;
69795;SDS011;57073;45.650;9.612;2023-03-30T22:45:25;11.20;;;5.60;;
69795;SDS011;57073;45.650;9.612;2023-03-30T22:50:25;9.50;;;5.50;;
69795;SDS011;57073;45.650;9.612;2023-03-30T22:55:27;13.98;;;5.40;;
69795;SDS011;57073;45.650;9.612;2023-03-30T23:00:27;11.33;;;5.00;;
69795;SDS011;57073;45.650;9.612;2023-03-30T23:05:28;11.40;;;4.70;;
69795;SDS011;57073;45.650;9.612;2023-03-30T23:10:28;12.07;;;4.60;;
69795;SDS011;57073;45.650;9.612;2023-03-30T23:15:32;9.68;;;4.35;;
69795;SDS011;57073;45.650;9.612;2023-03-30T23:20:32;9.10;;;4.10;;
69795;SDS011;57073;45.650;9.612;2023-03-30T23:25:33;8.47;;;3.60;;
69795;SDS011;57073;45.650;9.612;2023-03-30T23:30:35;8.20;;;3.37;;
69795;SDS011;57073;45.650;9.612;2023-03-30T23:35:36;9.68;;;3.95;;
69795;SDS011;57073;45.650;9.612;2023-03-30T23:40:36;9.10;;;3.10;;
69795;SDS011;57073;45.650;9.612;2023-03-30T23:45:37;6.80;;;2.73;;
69795;SDS011;57073;45.650;9.612;2023-03-30T23:50:37;6.10;;;2.63;;
69795;SDS011;57073;45.650;9.612;2023-03-30T23:55:38;6.23;;;2.10;;
